createdAt,value
2019-04-07T00:00:50.531Z,7.57
2019-04-07T00:03:53.199Z,7.63
2019-04-07T00:06:56.046Z,7.67
2019-04-07T00:09:58.308Z,7.69
2019-04-07T00:13:00.219Z,7.67
2019-04-07T00:16:03.555Z,7.64
2019-04-07T00:19:05.515Z,7.50
2019-04-07T00:22:07.947Z,7.42
2019-04-07T00:25:10.563Z,7.40
2019-04-07T00:28:12.850Z,7.42
2019-04-07T00:31:14.798Z,7.44
2019-04-07T00:34:17.471Z,7.49
2019-04-07T00:37:19.773Z,7.54
2019-04-07T00:40:22.400Z,7.49
2019-04-07T00:43:24.477Z,7.35
2019-04-07T00:46:26.851Z,7.19
2019-04-07T00:49:29.683Z,7.12
2019-04-07T00:52:31.749Z,7.01
2019-04-07T00:55:34.291Z,6.97
2019-04-07T00:58:36.939Z,6.93
2019-04-07T01:01:39.181Z,6.94
2019-04-07T01:04:41.907Z,6.89
2019-04-07T01:07:43.933Z,6.78
2019-04-07T01:10:45.979Z,6.73
2019-04-07T01:13:48.052Z,6.66
2019-04-07T01:16:50.662Z,6.62
2019-04-07T01:19:53.561Z,6.59
2019-04-07T01:22:56.143Z,6.59
2019-04-07T01:25:58.991Z,6.61
2019-04-07T01:29:01.449Z,6.59
2019-04-07T01:32:03.821Z,6.58
2019-04-07T01:35:07.024Z,6.58
2019-04-07T01:38:09.192Z,6.57
2019-04-07T01:41:22.796Z,6.53
2019-04-07T01:44:39.003Z,6.52
2019-04-07T01:47:45.642Z,6.50
2019-04-07T01:50:58.362Z,6.28
2019-04-07T01:54:02.140Z,6.11
2019-04-07T01:57:23.501Z,6.06
2019-04-07T02:00:30.551Z,6.10
2019-04-07T02:03:51.232Z,6.01
2019-04-07T02:06:57.973Z,5.94
2019-04-07T02:10:05.278Z,5.82
2019-04-07T02:13:15.405Z,5.74
2019-04-07T02:16:28.585Z,5.67
2019-04-07T02:19:35.942Z,5.61
2019-04-07T02:22:52.119Z,5.58
2019-04-07T02:26:02.392Z,5.54
2019-04-07T02:29:12.610Z,5.48
2019-04-07T02:32:17.400Z,5.45
2019-04-07T02:35:34.522Z,5.42
2019-04-07T02:38:56.793Z,5.43
2019-04-07T02:42:00.550Z,5.38
2019-04-07T02:45:13.795Z,5.26
2019-04-07T02:48:26.685Z,5.05
2019-04-07T02:51:36.359Z,4.90
2019-04-07T02:54:49.678Z,4.85
2019-04-07T02:58:10.295Z,4.86
2019-04-07T03:01:26.751Z,4.74
2019-04-07T03:04:41.484Z,4.67
2019-04-07T03:08:02.113Z,4.70
2019-04-07T03:11:14.801Z,4.71
2019-04-07T03:14:28.373Z,4.69
2019-04-07T03:17:32.274Z,4.58
2019-04-07T03:20:36.222Z,4.52
2019-04-07T03:23:56.724Z,4.48
2019-04-07T03:27:06.689Z,4.47
2019-04-07T03:30:11.490Z,4.43
2019-04-07T03:33:33.508Z,4.48
2019-04-07T03:37:16.930Z,4.58
2019-04-07T03:40:00.893Z,4.62
2019-04-07T03:43:14.053Z,4.58
2019-04-07T03:46:30.029Z,4.59
2019-04-07T03:49:45.754Z,4.55
2019-04-07T03:52:52.517Z,4.48
2019-04-07T03:55:56.247Z,4.49
2019-04-07T03:59:05.599Z,4.51
2019-04-07T04:02:12.559Z,4.54
2019-04-07T04:05:22.211Z,4.51
2019-04-07T04:08:32.735Z,4.53
2019-04-07T04:11:40.631Z,4.51
2019-04-07T04:15:01.613Z,4.53
2019-04-07T04:18:03.847Z,4.55
2019-04-07T04:21:06.975Z,4.52
2019-04-07T04:24:09.285Z,4.54
2019-04-07T04:27:12.723Z,4.55
2019-04-07T04:30:14.927Z,4.45
2019-04-07T04:33:17.861Z,4.46
2019-04-07T04:36:20.027Z,4.52
2019-04-07T04:39:22.887Z,4.55
2019-04-07T04:42:25.340Z,4.66
2019-04-07T04:45:27.581Z,4.80
2019-04-07T04:48:30.000Z,4.90
2019-04-07T04:51:35.456Z,5.01
2019-04-07T04:54:36.240Z,5.14
2019-04-07T04:57:38.276Z,5.27
2019-04-07T05:00:41.294Z,5.38
2019-04-07T05:03:43.649Z,5.78
2019-04-07T05:06:46.488Z,6.56
2019-04-07T05:09:52.874Z,7.32
2019-04-07T05:12:52.619Z,8.08
2019-04-07T05:15:54.715Z,8.76
2019-04-07T05:18:57.328Z,9.39
2019-04-07T05:21:59.862Z,9.97
2019-04-07T05:25:02.293Z,10.56
2019-04-07T05:28:04.674Z,11.03
2019-04-07T05:31:07.329Z,11.48
2019-04-07T05:34:09.383Z,11.97
2019-04-07T05:37:11.468Z,12.40
2019-04-07T05:40:14.032Z,12.70
2019-04-07T05:43:16.200Z,12.87
2019-04-07T05:46:18.204Z,13.01
2019-04-07T05:49:22.574Z,13.68
2019-04-07T05:52:24.115Z,14.00
2019-04-07T05:55:27.280Z,14.74
2019-04-07T05:58:29.471Z,15.27
2019-04-07T06:01:32.086Z,15.92
2019-04-07T06:04:34.801Z,16.46
2019-04-07T06:07:37.806Z,16.84
2019-04-07T06:10:40.343Z,16.66
2019-04-07T06:13:44.644Z,16.99
2019-04-07T06:16:46.815Z,17.44
2019-04-07T06:19:51.239Z,17.51
2019-04-07T06:22:54.454Z,17.74
2019-04-07T06:25:58.964Z,18.10
2019-04-07T06:29:00.711Z,18.27
2019-04-07T06:32:05.128Z,18.59
2019-04-07T06:35:07.422Z,18.91
2019-04-07T06:38:09.508Z,19.23
2019-04-07T06:41:11.541Z,19.40
2019-04-07T06:44:18.337Z,19.68
2019-04-07T06:47:22.180Z,20.03
2019-04-07T06:50:49.310Z,20.28
2019-04-07T06:53:57.891Z,20.65
2019-04-07T06:57:05.016Z,20.82
2019-04-07T07:00:14.001Z,21.41
2019-04-07T07:03:23.912Z,21.84
2019-04-07T07:06:47.095Z,21.95
2019-04-07T07:10:06.957Z,22.39
2019-04-07T07:13:26.518Z,22.39
2019-04-07T07:16:22.832Z,22.70
2019-04-07T07:19:45.118Z,22.64
2019-04-07T07:22:49.606Z,22.64
2019-04-07T07:25:52.027Z,23.16
2019-04-07T07:28:54.355Z,23.28
2019-04-07T07:32:02.480Z,23.38
2019-04-07T07:35:00.712Z,23.32
2019-04-07T07:38:03.996Z,23.53
2019-04-07T07:41:06.359Z,23.58
2019-04-07T07:44:09.733Z,23.51
2019-04-07T07:47:11.982Z,23.73
2019-04-07T07:50:13.932Z,24.06
2019-04-07T07:53:15.926Z,24.16
2019-04-07T07:56:18.404Z,24.16
2019-04-07T07:59:20.364Z,24.23
2019-04-07T08:02:22.350Z,23.99
2019-04-07T08:05:24.815Z,23.71
2019-04-07T08:08:27.651Z,23.85
2019-04-07T08:11:32.911Z,24.22
2019-04-07T08:14:33.647Z,24.20
2019-04-07T08:17:35.720Z,23.62
2019-04-07T08:20:38.458Z,23.09
2019-04-07T08:23:43.031Z,22.74
2019-04-07T08:26:44.813Z,22.51
2019-04-07T08:29:47.426Z,22.82
2019-04-07T08:32:50.068Z,22.44
2019-04-07T08:35:54.857Z,22.22
2019-04-07T08:38:57.145Z,22.30
2019-04-07T08:41:59.456Z,22.25
2019-04-07T08:45:01.664Z,22.28
2019-04-07T08:48:05.149Z,22.27
2019-04-07T08:51:08.493Z,21.88
2019-04-07T08:54:11.727Z,22.01
2019-04-07T08:57:15.276Z,22.19
2019-04-07T09:00:20.279Z,21.93
2019-04-07T09:03:23.174Z,21.69
2019-04-07T09:06:28.560Z,21.48
2019-04-07T09:09:34.029Z,21.40
2019-04-07T09:12:35.030Z,21.58
2019-04-07T09:15:43.071Z,21.64
2019-04-07T09:19:03.833Z,21.84
2019-04-07T09:22:06.290Z,21.61
2019-04-07T09:25:19.362Z,21.77
2019-04-07T09:28:29.834Z,21.71
2019-04-07T09:31:39.941Z,21.46
2019-04-07T09:34:50.458Z,21.47
2019-04-07T09:38:09.844Z,21.31
2019-04-07T09:41:27.385Z,21.14
2019-04-07T09:44:33.999Z,21.03
2019-04-07T09:47:38.024Z,21.09
2019-04-07T09:50:45.035Z,20.80
2019-04-07T09:53:52.222Z,20.72
2019-04-07T09:56:56.309Z,20.27
2019-04-07T10:00:16.081Z,20.34
2019-04-07T10:03:38.094Z,20.30
2019-04-07T10:06:42.190Z,20.51
2019-04-07T10:10:05.462Z,20.35
2019-04-07T10:12:58.399Z,20.81
2019-04-07T10:16:14.862Z,21.29
2019-04-07T10:19:36.299Z,21.52
2019-04-07T10:22:42.947Z,20.99
2019-04-07T10:25:56.156Z,20.81
2019-04-07T10:29:18.706Z,20.56
2019-04-07T10:32:34.624Z,20.40
2019-04-07T10:35:47.804Z,20.51
2019-04-07T10:38:55.324Z,20.68
2019-04-07T10:42:16.843Z,20.31
2019-04-07T10:45:29.884Z,20.12
2019-04-07T10:48:48.753Z,20.25
2019-04-07T10:52:07.799Z,20.52
2019-04-07T10:55:17.794Z,20.67
2019-04-07T10:58:39.246Z,20.70
2019-04-07T11:01:46.128Z,20.99
2019-04-07T11:04:52.873Z,21.22
2019-04-07T11:07:56.998Z,21.34
2019-04-07T11:11:04.554Z,21.43
2019-04-07T11:14:11.316Z,21.68
2019-04-07T11:17:21.564Z,21.76
2019-04-07T11:20:29.957Z,21.65
2019-04-07T11:23:50.434Z,21.51
2019-04-07T11:27:03.439Z,21.38
2019-04-07T11:30:08.177Z,20.87
2019-04-07T11:33:21.034Z,21.04
2019-04-07T11:36:31.041Z,21.04
2019-04-07T11:39:50.029Z,21.02
2019-04-07T11:42:56.751Z,20.61
2019-04-07T11:46:04.549Z,20.19
2019-04-07T11:49:13.374Z,20.28
2019-04-07T11:52:17.988Z,20.26
2019-04-07T11:55:31.359Z,20.37
2019-04-07T11:58:54.122Z,20.70
2019-04-07T12:02:01.911Z,20.64
2019-04-07T12:05:25.111Z,20.53
2019-04-07T12:08:45.718Z,20.07
2019-04-07T12:11:52.669Z,19.80
2019-04-07T12:14:56.653Z,19.58
2019-04-07T12:18:00.568Z,19.63
2019-04-07T12:21:07.207Z,19.92
2019-04-07T12:24:10.657Z,19.92
2019-04-07T12:27:17.287Z,19.76
2019-04-07T12:30:25.031Z,19.57
2019-04-07T12:33:32.809Z,19.32
2019-04-07T12:36:52.002Z,19.41
2019-04-07T12:39:55.859Z,19.53
2019-04-07T12:43:15.525Z,19.71
2019-04-07T12:46:36.535Z,19.91
2019-04-07T12:49:46.936Z,19.85
2019-04-07T12:53:07.998Z,19.33
2019-04-07T12:56:15.673Z,19.24
2019-04-07T12:59:25.572Z,19.04
2019-04-07T13:02:36.043Z,19.04
2019-04-07T13:05:42.770Z,19.40
2019-04-07T13:08:46.845Z,19.80
2019-04-07T13:12:05.900Z,20.20
2019-04-07T13:15:16.071Z,19.58
2019-04-07T13:18:19.813Z,19.58
2019-04-07T13:21:39.234Z,19.70
2019-04-07T13:25:00.223Z,19.88
2019-04-07T13:28:04.231Z,19.34
2019-04-07T13:31:17.863Z,19.22
2019-04-07T13:34:34.144Z,19.47
2019-04-07T13:37:38.390Z,19.54
2019-04-07T13:41:00.591Z,19.66
2019-04-07T13:44:07.747Z,19.72
2019-04-07T13:47:24.115Z,19.70
2019-04-07T13:50:44.938Z,19.88
2019-04-07T13:54:05.528Z,20.06
2019-04-07T13:57:26.395Z,20.08
2019-04-07T14:00:48.600Z,19.88
2019-04-07T14:03:56.517Z,19.80
2019-04-07T14:07:16.954Z,19.63
2019-04-07T14:10:37.344Z,19.57
2019-04-07T14:13:44.775Z,19.49
2019-04-07T14:17:07.328Z,19.32
2019-04-07T14:20:24.665Z,19.32
2019-04-07T14:23:28.694Z,19.30
2019-04-07T14:26:44.563Z,19.17
2019-04-07T14:29:57.682Z,19.28
2019-04-07T14:33:18.106Z,19.29
2019-04-07T14:36:21.875Z,19.08
2019-04-07T14:39:43.387Z,19.14
2019-04-07T14:42:47.444Z,19.29
2019-04-07T14:45:57.953Z,19.24
2019-04-07T14:49:13.461Z,19.21
2019-04-07T14:52:16.948Z,19.24
2019-04-07T14:55:20.757Z,19.33
2019-04-07T14:58:24.732Z,19.28
2019-04-07T15:01:34.822Z,19.19
2019-04-07T15:04:41.928Z,18.85
2019-04-07T15:07:57.863Z,18.67
2019-04-07T15:11:03.306Z,18.48
2019-04-07T15:14:06.166Z,18.58
2019-04-07T15:17:09.457Z,18.45
2019-04-07T15:20:14.379Z,18.42
2019-04-07T15:23:16.519Z,18.36
2019-04-07T15:26:19.307Z,18.15
2019-04-07T15:29:22.114Z,18.16
2019-04-07T15:32:28.071Z,18.25
2019-04-07T15:35:28.357Z,18.37
2019-04-07T15:38:31.271Z,18.50
2019-04-07T15:41:33.714Z,18.56
2019-04-07T15:44:37.175Z,18.60
2019-04-07T15:47:40.438Z,18.64
2019-04-07T15:50:42.752Z,18.66
2019-04-07T15:53:50.296Z,18.64
2019-04-07T15:56:50.249Z,18.62
2019-04-07T15:59:52.601Z,18.60
2019-04-07T16:02:54.895Z,18.61
2019-04-07T16:05:58.068Z,18.56
2019-04-07T16:09:01.159Z,18.40
2019-04-07T16:12:06.394Z,18.28
2019-04-07T16:15:09.743Z,18.26
2019-04-07T16:18:12.671Z,18.27
2019-04-07T16:21:14.716Z,18.27
2019-04-07T16:24:16.775Z,18.23
2019-04-07T16:27:19.293Z,18.05
2019-04-07T16:30:23.232Z,17.89
2019-04-07T16:33:26.155Z,17.79
2019-04-07T16:36:28.283Z,17.75
2019-04-07T16:39:33.502Z,17.77
2019-04-07T16:42:34.244Z,17.71
2019-04-07T16:45:36.713Z,17.55
2019-04-07T16:48:40.242Z,17.50
2019-04-07T16:51:42.786Z,17.45
2019-04-07T16:54:45.789Z,17.39
2019-04-07T16:57:48.236Z,17.29
2019-04-07T17:00:50.347Z,17.23
2019-04-07T17:03:52.410Z,17.14
2019-04-07T17:07:03.276Z,17.05
2019-04-07T17:10:02.421Z,16.92
2019-04-07T17:13:16.961Z,16.81
2019-04-07T17:16:12.199Z,16.69
2019-04-07T17:19:16.174Z,16.59
2019-04-07T17:22:19.764Z,16.51
2019-04-07T17:25:22.804Z,16.36
2019-04-07T17:28:25.063Z,16.21
2019-04-07T17:31:29.991Z,16.11
2019-04-07T17:34:32.552Z,16.00
2019-04-07T17:37:37.401Z,15.89
2019-04-07T17:40:47.005Z,15.77
2019-04-07T17:43:59.039Z,15.64
2019-04-07T17:47:04.149Z,15.50
2019-04-07T17:50:16.773Z,15.37
2019-04-07T17:53:21.264Z,15.28
2019-04-07T17:56:42.844Z,15.16
2019-04-07T17:59:52.082Z,15.01
2019-04-07T18:03:15.332Z,14.85
2019-04-07T18:06:19.911Z,14.72
2019-04-07T18:09:24.802Z,14.58
2019-04-07T18:12:34.700Z,14.47
2019-04-07T18:15:43.404Z,14.37
2019-04-07T18:18:59.167Z,14.27
2019-04-07T18:22:02.390Z,14.17
2019-04-07T18:25:17.369Z,14.11
2019-04-07T18:28:25.960Z,14.06
2019-04-07T18:31:45.468Z,13.99
2019-04-07T18:34:49.661Z,13.88
2019-04-07T18:38:11.185Z,13.81
2019-04-07T18:41:20.638Z,13.76
2019-04-07T18:44:41.022Z,13.66
2019-04-07T18:47:59.934Z,13.58
2019-04-07T18:51:19.902Z,13.51
2019-04-07T18:54:25.016Z,13.42
2019-04-07T18:57:46.666Z,13.32
2019-04-07T19:01:08.778Z,13.23
2019-04-07T19:04:30.432Z,13.14
2019-04-07T19:07:37.939Z,13.03
2019-04-07T19:10:42.527Z,12.96
2019-04-07T19:13:59.455Z,12.89
2019-04-07T19:17:00.824Z,12.85
2019-04-07T19:20:12.992Z,12.78
2019-04-07T19:23:24.224Z,12.71
2019-04-07T19:26:41.022Z,12.65
2019-04-07T19:29:57.448Z,12.63
2019-04-07T19:33:02.839Z,12.62
2019-04-07T19:36:18.052Z,12.59
2019-04-07T19:39:32.864Z,12.58
2019-04-07T19:42:48.166Z,12.54
2019-04-07T19:46:07.107Z,12.47
2019-04-07T19:49:21.736Z,12.34
2019-04-07T19:52:27.753Z,12.19
2019-04-07T19:55:32.464Z,12.10
2019-04-07T19:58:55.711Z,12.05
2019-04-07T20:02:11.864Z,11.92
2019-04-07T20:05:21.588Z,11.83
2019-04-07T20:08:44.101Z,11.73
2019-04-07T20:11:51.438Z,11.66
2019-04-07T20:15:08.836Z,11.56
2019-04-07T20:18:28.335Z,11.52
2019-04-07T20:21:53.244Z,11.12
2019-04-07T20:25:15.986Z,10.93
2019-04-07T20:28:35.847Z,10.84
2019-04-07T20:31:53.692Z,10.75
2019-04-07T20:35:01.282Z,10.72
2019-04-07T20:38:07.787Z,10.76
2019-04-07T20:41:26.761Z,10.74
2019-04-07T20:44:58.507Z,10.69
2019-04-07T20:48:08.079Z,10.61
2019-04-07T20:51:17.385Z,10.61
2019-04-07T20:54:31.501Z,10.63
2019-04-07T20:57:48.203Z,10.59
2019-04-07T21:01:04.637Z,10.43
2019-04-07T21:04:19.929Z,10.37
2019-04-07T21:07:42.885Z,10.37
2019-04-07T21:10:47.285Z,10.27
2019-04-07T21:13:54.566Z,10.19
2019-04-07T21:17:15.470Z,10.17
2019-04-07T21:20:20.097Z,10.10
2019-04-07T21:23:31.610Z,9.96
2019-04-07T21:26:35.980Z,9.88
2019-04-07T21:29:57.988Z,9.81
2019-04-07T21:33:11.163Z,9.73
2019-04-07T21:36:17.931Z,9.63
2019-04-07T21:39:34.399Z,9.58
2019-04-07T21:42:41.252Z,9.49
2019-04-07T21:45:53.343Z,9.40
2019-04-07T21:49:13.854Z,9.38
2019-04-07T21:52:23.056Z,9.38
2019-04-07T21:55:26.535Z,9.40
2019-04-07T21:58:34.333Z,9.44
2019-04-07T22:01:44.077Z,9.38
2019-04-07T22:05:00.764Z,9.33
2019-04-07T22:08:10.505Z,9.29
2019-04-07T22:11:09.264Z,9.24
2019-04-07T22:14:14.669Z,9.20
2019-04-07T22:17:16.931Z,9.19
2019-04-07T22:20:20.382Z,9.18
2019-04-07T22:23:23.026Z,9.19
2019-04-07T22:26:24.955Z,9.19
2019-04-07T22:29:26.890Z,9.17
2019-04-07T22:32:28.943Z,9.17
2019-04-07T22:35:30.845Z,9.16
2019-04-07T22:38:33.621Z,9.11
2019-04-07T22:41:36.976Z,9.00
2019-04-07T22:44:39.841Z,8.96
2019-04-07T22:47:41.887Z,8.91
2019-04-07T22:50:43.929Z,8.63
2019-04-07T22:53:45.902Z,8.45
2019-04-07T22:56:48.622Z,8.36
2019-04-07T22:59:50.744Z,8.32
2019-04-07T23:02:52.779Z,8.27
2019-04-07T23:05:55.484Z,8.24
2019-04-07T23:08:57.516Z,8.24
2019-04-07T23:12:01.738Z,8.22
2019-04-07T23:15:06.350Z,8.21
2019-04-07T23:18:08.267Z,8.18
2019-04-07T23:21:10.182Z,8.16
2019-04-07T23:24:12.928Z,7.99
2019-04-07T23:27:15.341Z,7.76
2019-04-07T23:30:21.447Z,7.74
2019-04-07T23:33:23.403Z,7.75
2019-04-07T23:36:26.356Z,7.69
2019-04-07T23:39:29.257Z,7.60
2019-04-07T23:42:31.549Z,7.54
2019-04-07T23:45:33.741Z,7.33
2019-04-07T23:48:35.792Z,7.18
2019-04-07T23:51:37.859Z,7.18
2019-04-07T23:54:39.828Z,7.27
2019-04-07T23:57:42.358Z,7.16
